Arcata, California
Current Conditions -  °F | °C
As of 5:53 PM on Monday 24 Nov 2014 (Local Time) from KACV Reporting Station
Clear Clear  
Wind Chill: 50°   Ceiling: Unl
Heat Index: 50°   Visibility: 8mi
Dew Point: 46°   Wind: 5mph
Humidity: 86%   Direction: 80°E
Pressure: 30.38"   Gusts: NA
Location:  40.87°N, 124.08°W
Report Text: KACV 250153Z AUTO 08004KT 8SM CLR 10/08 A3038 RMK AO2 SLP295 T01000078
Loading
Personal Weather Stations






























Interactive Weather Map New forecast layout! Learn more

10-Day Weather Forecast

Advertisements
Track Severe Weather on mobile